Time;durP1;ratioP1;P1;durP2;ratioP2;P2;SDS_P1;SDS_P2;PMS_P1;PMS_P2;Temp;Humidity;BMP_temperature;BMP_pressure;BME280_temperature;BME280_humidity;BME280_pressure;Samples;Min_cycle;Max_cycle;Signal;HPM_P1;HPM_P2
2023/07/01 00:00:07;;;;;;;8.10;2.37;;;;;;;-145.18;100.00;46672.13;5054191;28;20028;-59
2023/07/01 00:02:33;;;;;;;8.07;2.13;;;;;;;-145.18;100.00;46660.41;5073255;28;20480;-59
2023/07/01 00:04:59;;;;;;;5.77;2.57;;;;;;;-145.18;100.00;46666.25;5073669;28;20035;-60
2023/07/01 00:07:24;;;;;;;11.07;2.20;;;;;;;-145.18;100.00;46687.75;5082590;28;20019;-60
2023/07/01 00:09:50;;;;;;;4.13;1.90;;;;;;;-145.18;100.00;46652.59;5076347;28;20035;-59
2023/07/01 00:12:16;;;;;;;7.07;2.97;;;;;;;-145.18;100.00;46652.59;5072377;28;20395;-59
2023/07/01 00:14:41;;;;;;;6.40;2.63;;;;;;;-145.18;100.00;46658.44;5072371;28;20518;-59
2023/07/01 00:17:09;;;;;;;6.20;2.50;;;;;;;-145.18;100.00;46656.50;5088193;28;20045;-59
2023/07/01 00:19:35;;;;;;;5.60;2.17;;;;;;;-145.18;100.00;46642.81;5072364;28;20032;-59
2023/07/01 00:22:02;;;;;;;6.73;2.17;;;;;;;-145.18;100.00;46648.69;5081693;28;20509;-59
2023/07/01 00:24:27;;;;;;;4.90;2.17;;;;;;;-145.18;100.00;46636.94;5087073;28;20024;-59
2023/07/01 00:26:52;;;;;;;6.80;2.80;;;;;;;-145.18;100.00;46640.88;5072913;28;20035;-59
2023/07/01 00:29:18;;;;;;;4.20;1.93;;;;;;;-145.18;100.00;46648.69;5076933;28;20028;-59
2023/07/01 00:31:43;;;;;;;6.43;2.47;;;;;;;-145.18;100.00;46636.94;5088884;28;20027;-59
2023/07/01 00:34:09;;;;;;;8.70;3.03;;;;;;;-145.18;100.00;46595.94;5072565;28;20032;-58
2023/07/01 00:36:34;;;;;;;8.23;2.47;;;;;;;-145.18;100.00;46574.44;5093943;28;20075;-60
2023/07/01 00:38:59;;;;;;;3.93;2.40;;;;;;;-145.18;100.00;46586.16;5091918;28;20451;-60
2023/07/01 00:41:25;;;;;;;5.47;2.57;;;;;;;-145.18;100.00;46576.41;5075776;28;20040;-59
2023/07/01 00:43:50;;;;;;;5.60;2.93;;;;;;;-145.18;100.00;46568.59;5061154;28;20036;-59
2023/07/01 00:46:16;;;;;;;7.27;2.60;;;;;;;-145.18;100.00;46562.72;5079218;28;20399;-59
2023/07/01 00:48:42;;;;;;;6.00;2.50;;;;;;;-145.18;100.00;46570.53;5071839;28;20408;-59
2023/07/01 00:51:07;;;;;;;7.93;2.77;;;;;;;-145.18;100.00;46566.63;5100636;28;20088;-59
2023/07/01 00:53:33;;;;;;;3.97;2.97;;;;;;;-145.18;100.00;46564.69;5072108;28;20032;-59
2023/07/01 00:55:58;;;;;;;5.33;2.13;;;;;;;-145.18;100.00;46564.69;5071929;28;20032;-59
2023/07/01 00:58:23;;;;;;;7.43;2.40;;;;;;;-145.18;100.00;46572.50;5072805;28;20027;-59
2023/07/01 01:00:49;;;;;;;3.67;2.10;;;;;;;-145.18;100.00;46566.63;5072060;28;20122;-59
2023/07/01 01:03:26;;;;;;;6.40;2.47;;;;;;;-145.18;100.00;46564.69;5071884;28;20537;-59
2023/07/01 01:06:04;;;;;;;5.37;2.90;;;;;;;-145.18;100.00;46564.69;5078903;28;20536;-59
2023/07/01 01:08:43;;;;;;;7.30;2.53;;;;;;;-145.18;100.00;46568.59;5078063;28;20042;-59
2023/07/01 01:11:11;;;;;;;14.93;2.57;;;;;;;-145.18;100.00;46621.31;5089757;28;20024;-59
2023/07/01 01:13:38;;;;;;;8.07;2.90;;;;;;;-145.18;100.00;46635.00;5085149;28;20025;-59
2023/07/01 01:16:04;;;;;;;5.87;2.07;;;;;;;-145.18;100.00;46658.44;5071692;28;20032;-59
2023/07/01 01:18:32;;;;;;;3.80;2.50;;;;;;;-145.18;100.00;46679.94;5071605;28;20074;-59
2023/07/01 01:20:58;;;;;;;5.13;2.77;;;;;;;-145.18;100.00;46662.34;5072173;28;20024;-59
2023/07/01 01:23:32;;;;;;;4.77;2.33;;;;;;;-145.18;100.00;46672.13;5072801;28;20382;-60
2023/07/01 01:26:07;;;;;;;3.90;2.17;;;;;;;-145.18;100.00;46679.94;5083959;28;20024;-59
2023/07/01 01:28:36;;;;;;;6.40;2.00;;;;;;;-145.18;100.00;46691.66;5071245;28;20032;-60
2023/07/01 01:31:02;;;;;;;6.90;2.67;;;;;;;-145.18;100.00;46691.66;5071801;28;20036;-59
2023/07/01 01:33:28;;;;;;;6.60;3.23;;;;;;;-145.18;100.00;46697.50;5072571;28;20039;-59
2023/07/01 01:36:01;;;;;;;5.73;2.40;;;;;;;-145.18;100.00;46699.47;5071369;28;20059;-59
2023/07/01 01:38:33;;;;;;;3.90;2.60;;;;;;;-145.18;100.00;46697.50;5074890;28;20110;-59
2023/07/01 01:41:04;;;;;;;7.77;2.80;;;;;;;-145.18;100.00;46697.50;5090445;28;20032;-60
2023/07/01 01:43:41;;;;;;;6.83;2.97;;;;;;;-145.18;100.00;46695.56;5086385;28;20021;-59
2023/07/01 01:46:07;;;;;;;4.80;2.50;;;;;;;-145.18;100.00;46699.47;5083895;28;20034;-59
2023/07/01 01:48:34;;;;;;;4.87;2.50;;;;;;;-145.18;100.00;46699.47;5110916;28;20484;-59
2023/07/01 01:51:02;;;;;;;9.23;2.63;;;;;;;-145.18;100.00;46693.59;5057525;28;20016;-60
2023/07/01 01:53:29;;;;;;;5.93;2.90;;;;;;;-145.18;100.00;46699.47;5075366;28;20365;-59
2023/07/01 01:55:55;;;;;;;7.13;2.57;;;;;;;-145.18;100.00;46695.56;5081114;28;20021;-59
2023/07/01 01:58:21;;;;;;;4.50;2.40;;;;;;;-145.18;100.00;46691.66;5075144;28;20039;-60
2023/07/01 02:00:47;;;;;;;6.23;2.43;;;;;;;-145.18;100.00;46697.50;5075582;28;20037;-59
2023/07/01 02:03:13;;;;;;;7.33;2.47;;;;;;;-145.18;100.00;46689.69;5090686;28;20467;-60
2023/07/01 02:05:38;;;;;;;7.17;2.60;;;;;;;-145.18;100.00;46691.66;5093173;28;20039;-59
2023/07/01 02:08:04;;;;;;;5.00;2.40;;;;;;;-145.18;100.00;46691.66;5094718;28;20036;-59
2023/07/01 02:10:32;;;;;;;5.47;3.00;;;;;;;-145.18;100.00;46691.66;5081765;28;20114;-60
2023/07/01 02:12:57;;;;;;;5.00;2.70;;;;;;;-145.18;100.00;46687.75;5094582;28;20035;-59
2023/07/01 02:15:23;;;;;;;6.10;2.63;;;;;;;-145.18;100.00;46687.75;5083815;28;20404;-59
2023/07/01 02:17:48;;;;;;;4.53;2.23;;;;;;;-145.18;100.00;46693.59;5086286;28;20442;-59
2023/07/01 02:20:14;;;;;;;9.33;2.70;;;;;;;-145.18;100.00;46689.69;5089814;28;20059;-59
2023/07/01 02:22:39;;;;;;;5.23;2.23;;;;;;;-145.18;100.00;46693.59;5074802;28;20032;-59
2023/07/01 02:25:05;;;;;;;6.27;2.23;;;;;;;-145.18;100.00;46691.66;5088195;28;20162;-59
2023/07/01 02:27:31;;;;;;;9.37;2.60;;;;;;;-145.18;100.00;46693.59;5074193;28;20471;-60
2023/07/01 02:29:58;;;;;;;7.93;2.67;;;;;;;-145.18;100.00;46691.66;5074251;28;20112;-59
2023/07/01 02:32:24;;;;;;;6.67;1.93;;;;;;;-145.18;100.00;46691.66;5057422;28;20035;-59
2023/07/01 02:34:50;;;;;;;5.60;2.47;;;;;;;-145.18;100.00;46687.75;5074529;28;20107;-59
2023/07/01 02:37:15;;;;;;;6.27;2.70;;;;;;;-145.18;100.00;46689.69;5074122;28;20457;-59
2023/07/01 02:39:42;;;;;;;6.33;2.37;;;;;;;-145.18;100.00;46687.75;5074177;28;20048;-60
2023/07/01 02:42:07;;;;;;;4.33;2.30;;;;;;;-145.18;100.00;46687.75;5086397;28;20040;-59
2023/07/01 02:44:33;;;;;;;10.37;2.53;;;;;;;-145.18;100.00;46681.88;5090990;28;20487;-59
2023/07/01 02:46:58;;;;;;;3.70;2.20;;;;;;;-145.18;100.00;46676.03;5085467;28;20032;-59
2023/07/01 02:49:24;;;;;;;5.50;2.53;;;;;;;-145.18;100.00;46677.97;5075416;28;20024;-60
2023/07/01 02:51:49;;;;;;;5.93;2.70;;;;;;;-145.18;100.00;46674.06;5094047;28;20036;-59
2023/07/01 02:54:15;;;;;;;3.40;2.57;;;;;;;-145.18;100.00;46681.88;5093228;28;20026;-59
2023/07/01 02:56:40;;;;;;;3.80;2.80;;;;;;;-145.18;100.00;46670.16;5090560;28;20123;-59
2023/07/01 02:59:05;;;;;;;6.03;2.63;;;;;;;-145.18;100.00;46666.25;5078601;28;20703;-59
2023/07/01 03:01:31;;;;;;;8.00;2.60;;;;;;;-145.18;100.00;46662.34;5093272;28;20043;-60
2023/07/01 03:03:56;;;;;;;7.53;3.37;;;;;;;-145.18;100.00;46664.31;5092686;28;20028;-61
2023/07/01 03:06:22;;;;;;;5.50;2.77;;;;;;;-145.18;100.00;46662.34;5096177;28;20120;-61
2023/07/01 03:08:47;;;;;;;6.17;2.90;;;;;;;-145.18;100.00;46664.31;5089643;28;20377;-61
2023/07/01 03:11:12;;;;;;;5.00;2.73;;;;;;;-145.18;100.00;46658.44;5084629;28;20107;-61
2023/07/01 03:13:38;;;;;;;8.40;3.43;;;;;;;-145.18;100.00;46654.53;5092739;28;20027;-61
2023/07/01 03:16:07;;;;;;;5.17;2.97;;;;;;;-145.18;100.00;46654.53;5093491;28;20463;-61
2023/07/01 03:18:33;;;;;;;6.03;3.30;;;;;;;-145.18;100.00;46654.53;5091389;28;20028;-61
2023/07/01 03:21:00;;;;;;;5.60;2.93;;;;;;;-145.18;100.00;46654.53;5086137;28;20090;-61
2023/07/01 03:23:27;;;;;;;3.63;2.67;;;;;;;-145.18;100.00;46652.59;5087031;28;20107;-61
2023/07/01 03:25:52;;;;;;;4.37;3.03;;;;;;;-145.18;100.00;46652.59;5084702;28;20480;-61
2023/07/01 03:28:17;;;;;;;6.73;3.23;;;;;;;-145.18;100.00;46650.63;5074823;28;20036;-61
2023/07/01 03:30:43;;;;;;;10.00;3.17;;;;;;;-145.18;100.00;46648.69;5085647;28;20059;-61
2023/07/01 03:33:12;;;;;;;7.17;3.63;;;;;;;-145.18;100.00;46642.81;5079929;28;20084;-62
2023/07/01 03:35:37;;;;;;;5.67;3.30;;;;;;;-145.18;100.00;46646.72;5108886;28;20039;-62
2023/07/01 03:38:03;;;;;;;6.80;3.23;;;;;;;-145.18;100.00;46644.78;5107306;28;20052;-62
2023/07/01 03:40:29;;;;;;;5.20;4.10;;;;;;;-145.18;100.00;46644.78;5074482;28;20040;-62
2023/07/01 03:42:54;;;;;;;14.10;4.60;;;;;;;-145.18;100.00;46642.81;5091839;28;20020;-62
2023/07/01 03:45:19;;;;;;;11.53;4.23;;;;;;;-145.18;100.00;46660.41;5081673;28;20476;-62
2023/07/01 03:47:45;;;;;;;6.80;4.30;;;;;;;-145.18;100.00;46677.97;5089004;28;20081;-62
2023/07/01 03:50:14;;;;;;;10.90;4.83;;;;;;;-145.18;100.00;46640.88;5091939;28;20047;-62
2023/07/01 03:52:40;;;;;;;6.97;4.57;;;;;;;-145.18;100.00;46638.91;5073845;28;20373;-62
2023/07/01 03:55:08;;;;;;;6.13;4.70;;;;;;;-145.18;100.00;46676.03;5084015;28;20031;-62
2023/07/01 03:57:34;;;;;;;7.53;5.33;;;;;;;-145.18;100.00;46660.41;5084116;28;20510;-62
2023/07/01 04:00:08;;;;;;;6.40;4.83;;;;;;;-145.18;100.00;46638.91;5081110;28;20587;-62
2023/07/01 04:02:35;;;;;;;7.23;4.80;;;;;;;-145.18;100.00;46638.91;5075114;28;20024;-62
2023/07/01 04:05:09;;;;;;;7.83;4.73;;;;;;;-145.18;100.00;46660.41;5076581;28;20024;-62
2023/07/01 04:07:39;;;;;;;7.80;5.23;;;;;;;-145.18;100.00;46660.41;5069664;28;20380;-62
2023/07/01 04:10:08;;;;;;;8.60;5.37;;;;;;;-145.18;100.00;46638.91;5074744;28;20468;-62
2023/07/01 04:12:34;;;;;;;9.03;5.40;;;;;;;-145.18;100.00;46640.88;5074007;28;20040;-62
2023/07/01 04:15:00;;;;;;;7.07;5.60;;;;;;;-145.18;100.00;46660.41;5076350;28;20028;-62
2023/07/01 04:17:26;;;;;;;10.23;5.30;;;;;;;-145.18;100.00;46660.41;5072389;28;20029;-62
2023/07/01 04:19:51;;;;;;;11.17;6.00;;;;;;;-145.18;100.00;46636.94;5078161;28;20039;-62
2023/07/01 04:22:16;;;;;;;8.30;6.20;;;;;;;-145.18;100.00;46660.41;5016720;28;20029;-62
2023/07/01 04:24:42;;;;;;;8.17;5.93;;;;;;;-145.18;100.00;46660.41;5079007;28;20511;-62
2023/07/01 04:27:07;;;;;;;10.80;6.13;;;;;;;-145.18;100.00;46660.41;5078132;28;20039;-62
2023/07/01 04:29:32;;;;;;;6.10;5.47;;;;;;;-145.18;100.00;46660.41;5083231;28;20482;-62
2023/07/01 04:31:58;;;;;;;10.53;5.60;;;;;;;-145.18;100.00;46638.91;5055302;28;20028;-62
2023/07/01 04:34:23;;;;;;;11.00;6.17;;;;;;;-145.18;100.00;46660.41;5071788;28;20479;-62
2023/07/01 04:36:48;;;;;;;9.33;6.63;;;;;;;-145.18;100.00;46660.41;5078125;28;20133;-62
2023/07/01 04:39:14;;;;;;;8.33;6.60;;;;;;;-145.18;100.00;46660.41;5058057;28;20041;-62
2023/07/01 04:41:40;;;;;;;8.37;6.50;;;;;;;-145.18;100.00;46660.41;5074974;28;20040;-62
2023/07/01 04:44:06;;;;;;;11.57;6.57;;;;;;;-145.18;100.00;46660.41;5084132;28;20505;-62
2023/07/01 04:46:32;;;;;;;7.50;5.90;;;;;;;-145.18;100.00;46660.41;5022841;28;20036;-62
2023/07/01 04:49:01;;;;;;;12.87;6.50;;;;;;;-145.18;100.00;46660.41;5083558;28;20115;-62
2023/07/01 04:51:27;;;;;;;8.27;6.20;;;;;;;-145.18;100.00;46660.41;5071820;28;20024;-62
2023/07/01 04:53:52;;;;;;;8.57;6.23;;;;;;;-145.18;100.00;46660.41;5072235;28;20410;-62
2023/07/01 04:56:21;;;;;;;9.73;6.30;;;;;;;-145.18;100.00;46660.41;5072620;28;20029;-62
2023/07/01 04:58:46;;;;;;;8.70;6.33;;;;;;;-145.18;100.00;46660.41;5071884;28;20399;-62
2023/07/01 05:01:12;;;;;;;8.53;6.13;;;;;;;-145.18;100.00;46660.41;5072129;28;20028;-62
2023/07/01 05:03:37;;;;;;;9.73;6.47;;;;;;;-145.18;100.00;46660.41;5074128;28;20112;-62
2023/07/01 05:06:03;;;;;;;10.10;6.73;;;;;;;-145.18;100.00;46660.41;5071638;28;20055;-62
2023/07/01 05:08:28;;;;;;;7.63;6.00;;;;;;;-145.18;100.00;46660.41;5090242;28;20081;-62
2023/07/01 05:10:53;;;;;;;7.87;6.27;;;;;;;-145.18;100.00;46660.41;5073117;28;20499;-62
2023/07/01 05:13:19;;;;;;;9.77;6.50;;;;;;;-145.18;100.00;46660.41;5076387;28;20123;-62
2023/07/01 05:15:44;;;;;;;8.73;6.63;;;;;;;-145.18;100.00;46660.41;5077153;28;20107;-62
2023/07/01 05:18:10;;;;;;;11.00;6.27;;;;;;;-145.18;100.00;46660.41;5088271;28;20475;-62
2023/07/01 05:20:35;;;;;;;7.33;6.10;;;;;;;-145.18;100.00;46660.41;5082833;28;20376;-62
2023/07/01 05:23:01;;;;;;;12.13;6.43;;;;;;;-145.18;100.00;46660.41;5082462;28;20033;-60
2023/07/01 05:25:26;;;;;;;9.10;5.80;;;;;;;-145.18;100.00;46660.41;5080260;28;20040;-60
2023/07/01 05:27:52;;;;;;;10.53;5.93;;;;;;;-145.18;100.00;46660.41;5088507;28;20063;-60
2023/07/01 05:30:17;;;;;;;7.03;6.10;;;;;;;-145.18;100.00;46660.41;5092305;28;20028;-60
2023/07/01 05:32:42;;;;;;;7.80;5.77;;;;;;;-145.18;100.00;46660.41;5076233;28;20036;-60
2023/07/01 05:35:08;;;;;;;7.23;5.73;;;;;;;-145.18;100.00;46631.09;5091201;28;20373;-60
2023/07/01 05:37:34;;;;;;;6.30;5.47;;;;;;;-145.18;100.00;46660.41;5075957;28;20392;-60
2023/07/01 05:39:59;;;;;;;9.47;5.40;;;;;;;-145.18;100.00;46631.09;5075559;28;20049;-60
2023/07/01 05:42:25;;;;;;;7.50;5.63;;;;;;;-145.18;100.00;46633.06;5075937;28;20032;-60
2023/07/01 05:44:50;;;;;;;8.97;5.93;;;;;;;-145.18;100.00;46660.41;5076249;28;20446;-60
2023/07/01 05:47:15;;;;;;;8.80;4.83;;;;;;;-145.18;100.00;46660.41;5088711;28;20491;-60
2023/07/01 05:49:41;;;;;;;6.43;5.83;;;;;;;-145.18;100.00;46660.41;5075047;28;20036;-60
2023/07/01 05:52:06;;;;;;;7.80;5.37;;;;;;;-145.18;100.00;46660.41;5076472;28;20040;-60
2023/07/01 05:54:32;;;;;;;7.17;5.53;;;;;;;-145.18;100.00;46660.41;5075934;28;20028;-60
2023/07/01 05:56:57;;;;;;;9.10;5.67;;;;;;;-145.18;100.00;46660.41;5075856;28;20392;-60
2023/07/01 05:59:22;;;;;;;8.47;6.50;;;;;;;-145.18;100.00;46660.41;5076284;28;20056;-60
2023/07/01 06:01:48;;;;;;;10.00;6.50;;;;;;;-145.18;100.00;46627.19;5076744;28;20060;-60
2023/07/01 06:04:14;;;;;;;8.13;6.87;;;;;;;-145.18;100.00;46660.41;5074593;28;20025;-60
2023/07/01 06:06:39;;;;;;;11.77;7.20;;;;;;;-145.18;100.00;46660.41;5076660;28;20506;-60
2023/07/01 06:09:08;;;;;;;9.03;6.77;;;;;;;-145.18;100.00;46660.41;5083040;28;20033;-60
2023/07/01 06:11:33;;;;;;;10.23;7.00;;;;;;;-145.18;100.00;46629.13;5087535;28;20115;-61
2023/07/01 06:13:59;;;;;;;8.30;7.50;;;;;;;-145.18;100.00;46660.41;5083511;28;20394;-60
2023/07/01 06:16:24;;;;;;;7.80;6.60;;;;;;;-145.18;100.00;46629.13;5074624;28;20036;-60
2023/07/01 06:18:49;;;;;;;7.97;6.90;;;;;;;-145.18;100.00;46627.19;5080983;28;20024;-60
2023/07/01 06:21:15;;;;;;;10.57;7.43;;;;;;;-145.18;100.00;46660.41;5081541;28;20672;-60
2023/07/01 06:23:40;;;;;;;8.60;7.67;;;;;;;-145.18;100.00;46660.41;5074048;28;20032;-60
2023/07/01 06:26:06;;;;;;;10.73;7.40;;;;;;;-145.18;100.00;46660.41;5074937;28;20090;-62
2023/07/01 06:28:31;;;;;;;9.60;7.43;;;;;;;-145.18;100.00;46660.41;5082032;28;20033;-61
2023/07/01 06:30:57;;;;;;;11.23;8.07;;;;;;;-145.18;100.00;46629.13;5081619;28;20021;-61
2023/07/01 06:33:22;;;;;;;10.17;8.73;;;;;;;-145.18;100.00;46660.41;5075010;28;20040;-61
2023/07/01 06:35:48;;;;;;;10.57;7.73;;;;;;;-145.18;100.00;46660.41;5086991;28;20036;-60
2023/07/01 06:38:13;;;;;;;12.70;8.53;;;;;;;-145.18;100.00;46629.13;5080762;28;20093;-60
2023/07/01 06:40:39;;;;;;;11.50;8.57;;;;;;;-145.18;100.00;46629.13;5068400;28;20491;-60
2023/07/01 06:43:04;;;;;;;12.57;9.50;;;;;;;-145.18;100.00;46627.19;5087499;28;20033;-61
2023/07/01 06:45:30;;;;;;;12.73;9.17;;;;;;;-145.18;100.00;46660.41;5079421;28;20510;-61
2023/07/01 06:47:56;;;;;;;14.77;9.97;;;;;;;-145.18;100.00;46660.41;5082328;28;20028;-61
2023/07/01 06:50:22;;;;;;;11.63;9.47;;;;;;;-145.18;100.00;46627.19;5087679;28;20038;-61
2023/07/01 06:52:47;;;;;;;13.57;9.47;;;;;;;-145.18;100.00;46660.41;5081565;28;20070;-61
2023/07/01 06:55:13;;;;;;;13.83;9.30;;;;;;;-145.18;100.00;46660.41;5088331;28;20456;-61
2023/07/01 06:57:40;;;;;;;13.50;10.57;;;;;;;-145.18;100.00;46660.41;5081892;28;20033;-61
2023/07/01 07:00:09;;;;;;;11.93;9.00;;;;;;;-145.18;100.00;46660.41;5085766;28;20462;-61
2023/07/01 07:02:34;;;;;;;13.10;11.10;;;;;;;-145.18;100.00;46660.41;5076322;28;20543;-61
2023/07/01 07:05:00;;;;;;;12.40;9.83;;;;;;;-145.18;100.00;46660.41;5078649;28;20119;-62
2023/07/01 07:07:25;;;;;;;12.33;9.57;;;;;;;-145.18;100.00;46625.22;5076131;28;20025;-62
2023/07/01 07:09:51;;;;;;;13.57;11.03;;;;;;;-145.18;100.00;46621.31;5078421;28;20036;-62
2023/07/01 07:12:16;;;;;;;12.00;9.43;;;;;;;-145.18;100.00;46625.22;5083012;28;20122;-62
2023/07/01 07:14:41;;;;;;;11.80;9.73;;;;;;;-145.18;100.00;46621.31;5079810;28;20063;-62
2023/07/01 07:17:07;;;;;;;11.63;8.93;;;;;;;-145.18;100.00;46625.22;5078664;28;20035;-61
2023/07/01 07:19:33;;;;;;;12.53;9.80;;;;;;;-145.18;100.00;46623.28;5084555;28;20468;-62
2023/07/01 07:21:58;;;;;;;12.13;9.10;;;;;;;-145.18;100.00;46625.22;5078990;28;20524;-62
2023/07/01 07:24:23;;;;;;;10.33;8.67;;;;;;;-145.18;100.00;46619.38;5066355;28;20020;-62
2023/07/01 07:26:57;;;;;;;11.37;9.83;;;;;;;-145.18;100.00;46623.28;5079276;28;20575;-62
2023/07/01 07:29:24;;;;;;;9.87;8.20;;;;;;;-145.18;100.00;46617.41;5078438;28;20511;-62
2023/07/01 07:31:49;;;;;;;13.93;9.40;;;;;;;-145.18;100.00;46617.41;5076324;28;20043;-62
2023/07/01 07:34:15;;;;;;;10.23;8.57;;;;;;;-145.18;100.00;46619.38;5096321;28;20197;-61
2023/07/01 07:36:40;;;;;;;11.97;8.40;;;;;;;-145.18;100.00;46619.38;5073027;28;20032;-61
2023/07/01 07:39:06;;;;;;;12.00;8.70;;;;;;;-145.18;100.00;46615.47;5073023;28;20432;-61
2023/07/01 07:41:34;;;;;;;10.10;8.97;;;;;;;-145.18;100.00;46617.41;5080411;28;20032;-61
2023/07/01 07:43:59;;;;;;;10.37;7.43;;;;;;;-145.18;100.00;46617.41;5060608;28;20045;-61
2023/07/01 07:46:25;;;;;;;10.07;8.57;;;;;;;-145.18;100.00;46617.41;5054354;28;20028;-61
2023/07/01 07:48:50;;;;;;;11.57;8.97;;;;;;;-145.18;100.00;46617.41;5102095;28;20089;-61
2023/07/01 07:51:15;;;;;;;13.20;8.93;;;;;;;-145.18;100.00;46617.41;5077400;28;20090;-61
2023/07/01 07:53:41;;;;;;;10.73;8.70;;;;;;;-145.18;100.00;46611.56;5085805;28;20032;-61
2023/07/01 07:56:06;;;;;;;11.83;7.77;;;;;;;-145.18;100.00;46615.47;5076230;28;20036;-61
2023/07/01 07:58:32;;;;;;;9.87;7.90;;;;;;;-145.18;100.00;46611.56;5062231;28;20055;-61
2023/07/01 08:00:57;;;;;;;9.07;7.67;;;;;;;-145.18;100.00;46609.59;5060662;28;20044;-61
2023/07/01 08:03:22;;;;;;;9.67;8.27;;;;;;;-145.18;100.00;46609.59;5079719;28;20032;-61
2023/07/01 08:05:49;;;;;;;15.27;8.43;;;;;;;-145.18;100.00;46613.50;5078959;28;20504;-61
2023/07/01 08:08:15;;;;;;;9.87;6.87;;;;;;;-145.18;100.00;46607.66;5061513;28;20035;-61
2023/07/01 08:10:45;;;;;;;8.20;6.93;;;;;;;-145.18;100.00;46609.59;5084515;28;20036;-61
2023/07/01 08:13:11;;;;;;;9.07;7.67;;;;;;;-145.18;100.00;46609.59;5072281;28;20028;-62
2023/07/01 08:15:37;;;;;;;8.90;7.70;;;;;;;-145.18;100.00;46607.66;5060154;28;20123;-61
2023/07/01 08:18:02;;;;;;;11.17;7.50;;;;;;;-145.18;100.00;46609.59;5050681;28;20408;-61
2023/07/01 08:20:28;;;;;;;8.17;7.30;;;;;;;-145.18;100.00;46603.75;5078921;28;20047;-61
2023/07/01 08:22:53;;;;;;;7.90;6.90;;;;;;;-145.18;100.00;46611.56;5085425;28;20028;-61
2023/07/01 08:25:18;;;;;;;8.83;6.23;;;;;;;-145.18;100.00;46607.66;5071889;28;20434;-61
2023/07/01 08:27:44;;;;;;;11.40;6.83;;;;;;;-145.18;100.00;46607.66;5085577;28;20055;-61
2023/07/01 08:30:11;;;;;;;8.07;6.43;;;;;;;-145.18;100.00;46603.75;5079371;28;20467;-61
2023/07/01 08:32:36;;;;;;;10.27;7.53;;;;;;;-145.18;100.00;46609.59;5066356;28;20487;-61
2023/07/01 08:35:02;;;;;;;7.90;6.63;;;;;;;-145.18;100.00;46609.59;5071935;28;20042;-61
2023/07/01 08:37:27;;;;;;;6.47;5.77;;;;;;;-145.18;100.00;46603.75;5085379;28;20047;-62
2023/07/01 08:39:53;;;;;;;7.43;6.47;;;;;;;-145.18;100.00;46603.75;5084867;28;20633;-62
2023/07/01 08:42:24;;;;;;;9.10;5.80;;;;;;;-145.18;100.00;46603.75;5084956;28;20040;-61
2023/07/01 08:44:50;;;;;;;6.70;5.60;;;;;;;-145.18;100.00;46603.75;5081134;28;20361;-61
2023/07/01 08:47:17;;;;;;;6.90;5.33;;;;;;;-145.18;100.00;46607.66;5088531;28;20044;-61
2023/07/01 08:49:47;;;;;;;8.97;5.40;;;;;;;-145.18;100.00;46603.75;5091794;28;20533;-61
2023/07/01 08:52:17;;;;;;;5.70;5.10;;;;;;;-145.18;100.00;46607.66;5089947;28;20425;-62
2023/07/01 08:54:43;;;;;;;5.57;4.70;;;;;;;-145.18;100.00;46609.59;5084174;28;20032;-61
2023/07/01 08:57:09;;;;;;;5.70;4.40;;;;;;;-145.18;100.00;46605.69;5086619;28;20134;-62
2023/07/01 08:59:35;;;;;;;5.33;3.90;;;;;;;-145.18;100.00;46609.59;5091891;28;20619;-61
2023/07/01 09:02:01;;;;;;;4.13;3.67;;;;;;;-145.18;100.00;46609.59;5077363;28;20046;-61
2023/07/01 09:04:27;;;;;;;4.70;4.20;;;;;;;-145.18;100.00;46609.59;5088273;28;20052;-61
2023/07/01 09:06:53;;;;;;;5.80;4.20;;;;;;;-145.18;100.00;46609.59;5077009;28;20064;-61
2023/07/01 09:09:18;;;;;;;4.33;3.90;;;;;;;-145.18;100.00;46603.75;5071777;28;20443;-61
2023/07/01 09:11:43;;;;;;;6.93;3.63;;;;;;;-145.18;100.00;46603.75;5071673;28;20040;-61
2023/07/01 09:14:09;;;;;;;4.80;4.27;;;;;;;-145.18;100.00;46611.56;5059989;28;20035;-62
2023/07/01 09:16:37;;;;;;;4.40;3.73;;;;;;;-145.18;100.00;46609.59;5060698;28;20511;-61
2023/07/01 09:19:10;;;;;;;5.80;3.73;;;;;;;-145.18;100.00;46609.59;5064122;28;20025;-62
2023/07/01 09:21:37;;;;;;;5.50;3.80;;;;;;;-145.18;100.00;46609.59;5078649;28;20490;-61
2023/07/01 09:24:06;;;;;;;4.13;3.43;;;;;;;-145.18;100.00;46603.75;5072371;28;20060;-62
2023/07/01 09:26:32;;;;;;;5.20;4.20;;;;;;;-145.18;100.00;46609.59;5080258;28;20409;-61
2023/07/01 09:28:59;;;;;;;3.93;3.20;;;;;;;-145.18;100.00;46613.50;5071258;28;20028;-61
2023/07/01 09:31:26;;;;;;;4.87;3.60;;;;;;;-145.18;100.00;46607.66;5050116;28;20044;-61
2023/07/01 09:33:58;;;;;;;5.50;4.10;;;;;;;-145.18;100.00;46613.50;5071234;28;20085;-61
2023/07/01 09:36:25;;;;;;;5.70;4.30;;;;;;;-145.18;100.00;46611.56;5071805;28;20165;-62
2023/07/01 09:38:51;;;;;;;4.90;3.93;;;;;;;-145.18;100.00;46607.66;5071545;28;20048;-62
2023/07/01 09:41:24;;;;;;;6.13;4.00;;;;;;;-145.18;100.00;46609.59;5071852;28;20438;-62
2023/07/01 09:43:51;;;;;;;5.83;4.33;;;;;;;-145.18;100.00;46613.50;5065834;28;20044;-62
2023/07/01 09:46:17;;;;;;;6.27;4.30;;;;;;;-145.18;100.00;46613.50;5074281;28;20043;-62
2023/07/01 09:48:53;;;;;;;6.03;4.30;;;;;;;-145.18;100.00;46601.78;5019410;28;20028;-62
2023/07/01 09:51:20;;;;;;;6.83;4.60;;;;;;;-145.18;100.00;46611.56;5062846;28;20089;-62
2023/07/01 09:53:45;;;;;;;6.10;4.60;;;;;;;-145.18;100.00;46615.47;5079610;28;20029;-62
2023/07/01 09:56:14;;;;;;;6.87;4.67;;;;;;;-145.18;100.00;46611.56;5081929;28;20055;-62
2023/07/01 09:58:39;;;;;;;8.20;4.50;;;;;;;-145.18;100.00;46617.41;5074253;28;20031;-62
2023/07/01 10:01:05;;;;;;;5.33;3.93;;;;;;;-145.18;100.00;46615.47;5084460;28;20028;-62
2023/07/01 10:03:31;;;;;;;5.13;4.13;;;;;;;-145.18;100.00;46611.56;5070139;28;20032;-63
2023/07/01 10:05:57;;;;;;;7.07;5.07;;;;;;;-145.18;100.00;46613.50;5086063;28;20036;-63
2023/07/01 10:08:22;;;;;;;6.67;5.33;;;;;;;-145.18;100.00;46615.47;5084514;28;20434;-63
2023/07/01 10:10:59;;;;;;;7.43;4.50;;;;;;;-145.18;100.00;46611.56;5089614;28;20032;-63
2023/07/01 10:13:28;;;;;;;6.67;4.60;;;;;;;-145.18;100.00;46613.50;5079965;28;20035;-66
2023/07/01 10:15:54;;;;;;;7.20;4.13;;;;;;;-145.18;100.00;46609.59;5082895;28;20036;-66
2023/07/01 10:18:21;;;;;;;6.07;4.13;;;;;;;-145.18;100.00;46611.56;5085862;28;20028;-66
2023/07/01 10:20:46;;;;;;;5.93;4.13;;;;;;;-145.18;100.00;46609.59;5102489;28;20056;-66
2023/07/01 10:23:12;;;;;;;5.03;3.53;;;;;;;-145.18;100.00;46607.66;5085906;28;20439;-67
2023/07/01 10:25:39;;;;;;;4.80;3.13;;;;;;;-145.18;100.00;46609.59;5087592;28;20055;-65
2023/07/01 10:28:09;;;;;;;3.50;2.83;;;;;;;-145.18;100.00;46607.66;5092907;28;20032;-65
2023/07/01 10:30:41;;;;;;;4.97;3.40;;;;;;;-145.18;100.00;46603.75;5078286;28;20044;-64
2023/07/01 10:33:27;;;;;;;4.23;3.27;;;;;;;-145.18;100.00;46601.78;5075270;28;20028;-64
2023/07/01 10:36:05;;;;;;;5.05;3.22;;;;;;;-145.18;100.00;46607.66;5074087;28;20490;-64
2023/07/01 10:38:31;;;;;;;6.57;4.07;;;;;;;-145.18;100.00;46607.66;5062603;28;20027;-64
2023/07/01 10:40:56;;;;;;;8.20;4.30;;;;;;;-145.18;100.00;46611.56;5076726;28;20020;-64
2023/07/01 10:43:33;;;;;;;8.30;4.60;;;;;;;-145.18;100.00;46611.56;5075396;28;20098;-64
2023/07/01 10:46:24;;;;;;;5.20;3.53;;;;;;;-145.18;100.00;46613.50;5075616;28;20090;-64
2023/07/01 10:49:01;;;;;;;6.33;3.93;;;;;;;-145.18;100.00;46609.59;5083546;28;20086;-64
2023/07/01 10:51:27;;;;;;;7.87;4.33;;;;;;;-145.18;100.00;46617.41;5086133;28;20111;-64
2023/07/01 10:54:04;;;;;;;6.20;4.40;;;;;;;-145.18;100.00;46619.38;5084776;28;20127;-65
2023/07/01 10:56:35;;;;;;;8.63;4.40;;;;;;;-145.18;100.00;46617.41;5081066;28;20024;-65
2023/07/01 10:59:21;;;;;;;7.97;3.90;;;;;;;-145.18;100.00;46621.31;5075583;28;20012;-65
2023/07/01 11:01:56;;;;;;;4.88;3.80;;;;;;;-145.18;100.00;46625.22;5082714;28;20032;-64
2023/07/01 11:04:51;;;;;;;10.33;4.03;;;;;;;-145.18;100.00;46625.22;5080919;28;20052;-64